sensor_id;sensor_type;location;lat;lon;timestamp;temperature;humidity
13464;DHT22;6804;48.774;9.174;2023-11-22T00:00:08;10.30;99.90
13464;DHT22;6804;48.774;9.174;2023-11-22T00:02:35;10.30;99.90
13464;DHT22;6804;48.774;9.174;2023-11-22T00:05:05;10.30;99.90
13464;DHT22;6804;48.774;9.174;2023-11-22T00:07:35;10.30;99.90
13464;DHT22;6804;48.774;9.174;2023-11-22T00:10:06;10.30;99.90
13464;DHT22;6804;48.774;9.174;2023-11-22T00:12:37;10.30;99.90
13464;DHT22;6804;48.774;9.174;2023-11-22T00:15:08;10.10;99.90
13464;DHT22;6804;48.774;9.174;2023-11-22T00:17:37;9.80;99.90
13464;DHT22;6804;48.774;9.174;2023-11-22T00:20:06;9.50;99.90
13464;DHT22;6804;48.774;9.174;2023-11-22T00:22:38;9.40;99.90
13464;DHT22;6804;48.774;9.174;2023-11-22T00:25:07;9.30;99.90
13464;DHT22;6804;48.774;9.174;2023-11-22T00:27:41;9.10;99.90
13464;DHT22;6804;48.774;9.174;2023-11-22T00:30:18;9.00;99.90
13464;DHT22;6804;48.774;9.174;2023-11-22T00:32:46;8.90;99.90
13464;DHT22;6804;48.774;9.174;2023-11-22T00:35:14;8.90;99.90
13464;DHT22;6804;48.774;9.174;2023-11-22T00:37:43;8.80;99.90
13464;DHT22;6804;48.774;9.174;2023-11-22T00:40:12;8.80;99.90
13464;DHT22;6804;48.774;9.174;2023-11-22T00:42:42;8.80;99.90
13464;DHT22;6804;48.774;9.174;2023-11-22T00:45:13;8.70;99.90
13464;DHT22;6804;48.774;9.174;2023-11-22T00:47:39;8.70;99.90
13464;DHT22;6804;48.774;9.174;2023-11-22T00:50:07;8.70;99.90
13464;DHT22;6804;48.774;9.174;2023-11-22T00:52:39;8.60;99.90
13464;DHT22;6804;48.774;9.174;2023-11-22T00:55:13;8.40;99.90
13464;DHT22;6804;48.774;9.174;2023-11-22T00:57:41;8.40;99.90
13464;DHT22;6804;48.774;9.174;2023-11-22T01:00:10;8.30;99.90
13464;DHT22;6804;48.774;9.174;2023-11-22T01:02:39;8.20;99.90
13464;DHT22;6804;48.774;9.174;2023-11-22T01:05:11;8.20;99.90
13464;DHT22;6804;48.774;9.174;2023-11-22T01:07:39;8.20;99.90
13464;DHT22;6804;48.774;9.174;2023-11-22T01:10:07;8.20;99.90
13464;DHT22;6804;48.774;9.174;2023-11-22T01:12:38;8.20;99.90
13464;DHT22;6804;48.774;9.174;2023-11-22T01:15:10;8.20;99.90
13464;DHT22;6804;48.774;9.174;2023-11-22T01:17:38;8.20;99.90
13464;DHT22;6804;48.774;9.174;2023-11-22T01:20:09;8.10;99.90
13464;DHT22;6804;48.774;9.174;2023-11-22T01:22:39;8.00;99.90
13464;DHT22;6804;48.774;9.174;2023-11-22T01:25:08;7.90;99.90
13464;DHT22;6804;48.774;9.174;2023-11-22T01:27:37;7.80;99.90
13464;DHT22;6804;48.774;9.174;2023-11-22T01:30:06;7.80;99.90
13464;DHT22;6804;48.774;9.174;2023-11-22T01:32:34;7.80;99.90
13464;DHT22;6804;48.774;9.174;2023-11-22T01:35:02;7.80;99.90
13464;DHT22;6804;48.774;9.174;2023-11-22T01:37:31;7.80;99.90
13464;DHT22;6804;48.774;9.174;2023-11-22T01:40:01;7.90;99.90
13464;DHT22;6804;48.774;9.174;2023-11-22T01:42:29;7.80;99.90
13464;DHT22;6804;48.774;9.174;2023-11-22T01:45:04;7.80;99.90
13464;DHT22;6804;48.774;9.174;2023-11-22T01:47:33;7.70;99.90
13464;DHT22;6804;48.774;9.174;2023-11-22T01:50:06;7.70;99.90
13464;DHT22;6804;48.774;9.174;2023-11-22T01:52:36;7.70;99.90
13464;DHT22;6804;48.774;9.174;2023-11-22T01:55:04;7.70;99.90
13464;DHT22;6804;48.774;9.174;2023-11-22T01:57:36;7.60;99.90
13464;DHT22;6804;48.774;9.174;2023-11-22T02:00:23;7.60;99.90
13464;DHT22;6804;48.774;9.174;2023-11-22T02:02:52;7.60;99.90
13464;DHT22;6804;48.774;9.174;2023-11-22T02:05:39;7.50;99.90
13464;DHT22;6804;48.774;9.174;2023-11-22T02:08:09;7.50;99.90
13464;DHT22;6804;48.774;9.174;2023-11-22T02:10:37;7.50;99.90
13464;DHT22;6804;48.774;9.174;2023-11-22T02:13:05;7.40;99.90
13464;DHT22;6804;48.774;9.174;2023-11-22T02:15:35;7.40;99.90
13464;DHT22;6804;48.774;9.174;2023-11-22T02:18:06;7.30;99.90
13464;DHT22;6804;48.774;9.174;2023-11-22T02:20:34;7.20;99.90
13464;DHT22;6804;48.774;9.174;2023-11-22T02:23:08;7.20;99.90
13464;DHT22;6804;48.774;9.174;2023-11-22T02:25:38;7.10;99.90
13464;DHT22;6804;48.774;9.174;2023-11-22T02:28:06;7.10;99.90
13464;DHT22;6804;48.774;9.174;2023-11-22T02:30:34;7.10;99.90
13464;DHT22;6804;48.774;9.174;2023-11-22T02:33:02;7.10;99.90
13464;DHT22;6804;48.774;9.174;2023-11-22T02:35:33;7.10;99.90
13464;DHT22;6804;48.774;9.174;2023-11-22T02:38:00;7.20;99.90
13464;DHT22;6804;48.774;9.174;2023-11-22T02:40:29;7.10;99.90
13464;DHT22;6804;48.774;9.174;2023-11-22T02:42:58;7.10;99.90
13464;DHT22;6804;48.774;9.174;2023-11-22T02:45:28;7.10;99.90
13464;DHT22;6804;48.774;9.174;2023-11-22T02:48:02;7.10;99.90
13464;DHT22;6804;48.774;9.174;2023-11-22T02:50:30;7.10;99.90
13464;DHT22;6804;48.774;9.174;2023-11-22T02:53:00;7.10;99.90
13464;DHT22;6804;48.774;9.174;2023-11-22T02:55:30;7.10;99.90
13464;DHT22;6804;48.774;9.174;2023-11-22T02:58:02;7.20;99.90
13464;DHT22;6804;48.774;9.174;2023-11-22T03:00:32;7.20;99.90
13464;DHT22;6804;48.774;9.174;2023-11-22T03:03:01;7.20;99.90
13464;DHT22;6804;48.774;9.174;2023-11-22T03:05:31;7.20;99.90
13464;DHT22;6804;48.774;9.174;2023-11-22T03:08:01;7.20;99.90
13464;DHT22;6804;48.774;9.174;2023-11-22T03:10:33;7.10;99.90
13464;DHT22;6804;48.774;9.174;2023-11-22T03:13:01;7.10;99.90
13464;DHT22;6804;48.774;9.174;2023-11-22T03:15:30;7.10;99.90
13464;DHT22;6804;48.774;9.174;2023-11-22T03:17:58;7.00;99.90
13464;DHT22;6804;48.774;9.174;2023-11-22T03:20:25;7.00;99.90
13464;DHT22;6804;48.774;9.174;2023-11-22T03:22:53;7.00;99.90
13464;DHT22;6804;48.774;9.174;2023-11-22T03:25:24;6.90;99.90
13464;DHT22;6804;48.774;9.174;2023-11-22T03:27:53;6.80;99.90
13464;DHT22;6804;48.774;9.174;2023-11-22T03:30:22;6.80;99.90
13464;DHT22;6804;48.774;9.174;2023-11-22T03:32:51;6.70;99.90
13464;DHT22;6804;48.774;9.174;2023-11-22T03:35:22;6.70;99.90
13464;DHT22;6804;48.774;9.174;2023-11-22T03:37:50;6.60;99.90
13464;DHT22;6804;48.774;9.174;2023-11-22T03:40:17;6.50;99.90
13464;DHT22;6804;48.774;9.174;2023-11-22T03:42:45;6.50;99.90
13464;DHT22;6804;48.774;9.174;2023-11-22T03:45:14;6.50;99.90
13464;DHT22;6804;48.774;9.174;2023-11-22T03:47:42;6.50;99.90
13464;DHT22;6804;48.774;9.174;2023-11-22T03:50:13;6.60;99.90
13464;DHT22;6804;48.774;9.174;2023-11-22T03:52:40;6.60;99.90
13464;DHT22;6804;48.774;9.174;2023-11-22T03:55:17;6.70;99.90
13464;DHT22;6804;48.774;9.174;2023-11-22T03:57:44;6.70;99.90
13464;DHT22;6804;48.774;9.174;2023-11-22T04:00:14;6.80;99.90
13464;DHT22;6804;48.774;9.174;2023-11-22T04:02:42;6.90;99.90
13464;DHT22;6804;48.774;9.174;2023-11-22T04:05:16;7.00;99.90
13464;DHT22;6804;48.774;9.174;2023-11-22T04:07:45;7.00;99.90
13464;DHT22;6804;48.774;9.174;2023-11-22T04:10:13;7.00;99.90
13464;DHT22;6804;48.774;9.174;2023-11-22T04:12:46;6.90;99.90
13464;DHT22;6804;48.774;9.174;2023-11-22T04:15:15;6.90;99.90
13464;DHT22;6804;48.774;9.174;2023-11-22T04:17:45;6.90;99.90
13464;DHT22;6804;48.774;9.174;2023-11-22T04:20:13;7.00;99.90
13464;DHT22;6804;48.774;9.174;2023-11-22T04:22:41;7.00;99.90
13464;DHT22;6804;48.774;9.174;2023-11-22T04:25:13;7.00;99.90
13464;DHT22;6804;48.774;9.174;2023-11-22T04:27:41;7.00;99.90
13464;DHT22;6804;48.774;9.174;2023-11-22T04:30:11;6.80;99.90
13464;DHT22;6804;48.774;9.174;2023-11-22T04:32:43;6.80;99.90
13464;DHT22;6804;48.774;9.174;2023-11-22T04:35:13;6.70;99.90
13464;DHT22;6804;48.774;9.174;2023-11-22T04:37:41;6.80;99.90
13464;DHT22;6804;48.774;9.174;2023-11-22T04:40:13;6.80;99.90
13464;DHT22;6804;48.774;9.174;2023-11-22T04:42:44;6.80;99.90
13464;DHT22;6804;48.774;9.174;2023-11-22T04:45:11;6.70;99.90
13464;DHT22;6804;48.774;9.174;2023-11-22T04:47:40;6.70;99.90
13464;DHT22;6804;48.774;9.174;2023-11-22T04:50:10;6.80;99.90
13464;DHT22;6804;48.774;9.174;2023-11-22T04:52:38;6.80;99.90
13464;DHT22;6804;48.774;9.174;2023-11-22T04:55:09;6.80;99.90
13464;DHT22;6804;48.774;9.174;2023-11-22T04:57:36;6.80;99.90
13464;DHT22;6804;48.774;9.174;2023-11-22T05:00:06;6.80;99.90
13464;DHT22;6804;48.774;9.174;2023-11-22T05:02:34;6.90;99.90
13464;DHT22;6804;48.774;9.174;2023-11-22T05:05:06;6.90;99.90
13464;DHT22;6804;48.774;9.174;2023-11-22T05:07:34;6.90;99.90
13464;DHT22;6804;48.774;9.174;2023-11-22T05:10:01;6.80;99.90
13464;DHT22;6804;48.774;9.174;2023-11-22T05:12:29;6.80;99.90
13464;DHT22;6804;48.774;9.174;2023-11-22T05:14:58;6.80;99.90
13464;DHT22;6804;48.774;9.174;2023-11-22T05:17:25;6.80;99.90
13464;DHT22;6804;48.774;9.174;2023-11-22T05:19:53;6.70;99.90
13464;DHT22;6804;48.774;9.174;2023-11-22T05:22:26;6.60;99.90
13464;DHT22;6804;48.774;9.174;2023-11-22T05:24:54;6.50;99.90
13464;DHT22;6804;48.774;9.174;2023-11-22T05:27:24;6.50;99.90
13464;DHT22;6804;48.774;9.174;2023-11-22T05:29:54;6.40;99.90
13464;DHT22;6804;48.774;9.174;2023-11-22T05:32:22;6.40;99.90
13464;DHT22;6804;48.774;9.174;2023-11-22T05:34:50;6.40;99.90
13464;DHT22;6804;48.774;9.174;2023-11-22T05:37:18;6.50;99.90
13464;DHT22;6804;48.774;9.174;2023-11-22T05:39:47;6.50;99.90
13464;DHT22;6804;48.774;9.174;2023-11-22T05:42:15;6.60;99.90
13464;DHT22;6804;48.774;9.174;2023-11-22T05:44:44;6.60;99.90
13464;DHT22;6804;48.774;9.174;2023-11-22T05:47:12;6.70;99.90
13464;DHT22;6804;48.774;9.174;2023-11-22T05:49:40;6.70;99.90
13464;DHT22;6804;48.774;9.174;2023-11-22T05:52:07;6.70;99.90
13464;DHT22;6804;48.774;9.174;2023-11-22T05:54:35;6.60;99.90
13464;DHT22;6804;48.774;9.174;2023-11-22T05:57:11;6.50;99.90
13464;DHT22;6804;48.774;9.174;2023-11-22T05:59:41;6.50;99.90
13464;DHT22;6804;48.774;9.174;2023-11-22T06:02:09;6.50;99.90
13464;DHT22;6804;48.774;9.174;2023-11-22T06:04:37;6.50;99.90
13464;DHT22;6804;48.774;9.174;2023-11-22T06:07:08;6.50;99.90
13464;DHT22;6804;48.774;9.174;2023-11-22T06:09:39;6.50;99.90
13464;DHT22;6804;48.774;9.174;2023-11-22T06:12:12;6.40;99.90
13464;DHT22;6804;48.774;9.174;2023-11-22T06:14:42;6.40;99.90
13464;DHT22;6804;48.774;9.174;2023-11-22T06:17:12;6.50;99.90
13464;DHT22;6804;48.774;9.174;2023-11-22T06:19:46;6.50;99.90
13464;DHT22;6804;48.774;9.174;2023-11-22T06:22:15;6.50;99.90
13464;DHT22;6804;48.774;9.174;2023-11-22T06:25:05;6.40;99.90
13464;DHT22;6804;48.774;9.174;2023-11-22T06:27:37;6.40;99.90
13464;DHT22;6804;48.774;9.174;2023-11-22T06:30:09;6.40;99.90
13464;DHT22;6804;48.774;9.174;2023-11-22T06:32:37;6.40;99.90
13464;DHT22;6804;48.774;9.174;2023-11-22T06:35:09;6.30;99.90
13464;DHT22;6804;48.774;9.174;2023-11-22T06:37:41;6.30;99.90
13464;DHT22;6804;48.774;9.174;2023-11-22T06:40:10;6.20;99.90
13464;DHT22;6804;48.774;9.174;2023-11-22T06:42:42;6.10;99.90
13464;DHT22;6804;48.774;9.174;2023-11-22T06:45:11;6.10;99.90
13464;DHT22;6804;48.774;9.174;2023-11-22T06:47:43;6.10;99.90
13464;DHT22;6804;48.774;9.174;2023-11-22T06:50:19;6.10;99.90
13464;DHT22;6804;48.774;9.174;2023-11-22T06:52:47;6.10;99.90
13464;DHT22;6804;48.774;9.174;2023-11-22T06:55:19;6.10;99.90
13464;DHT22;6804;48.774;9.174;2023-11-22T06:57:50;6.00;99.90
13464;DHT22;6804;48.774;9.174;2023-11-22T07:00:18;6.00;99.90
13464;DHT22;6804;48.774;9.174;2023-11-22T07:02:50;5.90;99.90
13464;DHT22;6804;48.774;9.174;2023-11-22T07:05:20;5.90;99.90
13464;DHT22;6804;48.774;9.174;2023-11-22T07:07:49;5.90;99.90
13464;DHT22;6804;48.774;9.174;2023-11-22T07:10:19;6.00;99.90
13464;DHT22;6804;48.774;9.174;2023-11-22T07:12:51;6.00;99.90
13464;DHT22;6804;48.774;9.174;2023-11-22T07:15:19;6.00;99.90
13464;DHT22;6804;48.774;9.174;2023-11-22T07:17:49;6.00;99.90
13464;DHT22;6804;48.774;9.174;2023-11-22T07:20:17;5.90;99.90
13464;DHT22;6804;48.774;9.174;2023-11-22T07:22:46;5.90;99.90
13464;DHT22;6804;48.774;9.174;2023-11-22T07:25:21;5.90;99.90
13464;DHT22;6804;48.774;9.174;2023-11-22T07:27:52;5.90;99.90
13464;DHT22;6804;48.774;9.174;2023-11-22T07:30:20;5.90;99.90
13464;DHT22;6804;48.774;9.174;2023-11-22T07:32:50;5.90;99.90
13464;DHT22;6804;48.774;9.174;2023-11-22T07:35:21;5.80;99.90
13464;DHT22;6804;48.774;9.174;2023-11-22T07:37:50;5.80;99.90
13464;DHT22;6804;48.774;9.174;2023-11-22T07:40:18;5.80;99.90
13464;DHT22;6804;48.774;9.174;2023-11-22T07:42:52;5.70;99.90
13464;DHT22;6804;48.774;9.174;2023-11-22T07:45:21;5.70;99.90
13464;DHT22;6804;48.774;9.174;2023-11-22T07:47:49;5.60;99.90
13464;DHT22;6804;48.774;9.174;2023-11-22T07:50:19;5.50;99.90
13464;DHT22;6804;48.774;9.174;2023-11-22T07:52:48;5.50;99.90
13464;DHT22;6804;48.774;9.174;2023-11-22T07:55:20;5.60;99.90
13464;DHT22;6804;48.774;9.174;2023-11-22T07:57:50;5.60;99.90
13464;DHT22;6804;48.774;9.174;2023-11-22T08:00:23;5.70;99.90
13464;DHT22;6804;48.774;9.174;2023-11-22T08:02:51;5.70;99.90
13464;DHT22;6804;48.774;9.174;2023-11-22T08:05:21;5.70;99.90
13464;DHT22;6804;48.774;9.174;2023-11-22T08:07:50;5.70;99.90
13464;DHT22;6804;48.774;9.174;2023-11-22T08:10:18;5.70;99.90
13464;DHT22;6804;48.774;9.174;2023-11-22T08:12:50;5.70;99.90
13464;DHT22;6804;48.774;9.174;2023-11-22T08:15:25;5.60;99.90
13464;DHT22;6804;48.774;9.174;2023-11-22T08:18:15;5.50;99.90
13464;DHT22;6804;48.774;9.174;2023-11-22T08:20:45;5.50;99.90
13464;DHT22;6804;48.774;9.174;2023-11-22T08:23:15;5.50;99.90
13464;DHT22;6804;48.774;9.174;2023-11-22T08:25:46;5.50;99.90
13464;DHT22;6804;48.774;9.174;2023-11-22T08:28:21;5.40;99.90
13464;DHT22;6804;48.774;9.174;2023-11-22T08:30:52;5.40;99.90
13464;DHT22;6804;48.774;9.174;2023-11-22T08:33:22;5.40;99.90
13464;DHT22;6804;48.774;9.174;2023-11-22T08:35:52;5.50;99.90
13464;DHT22;6804;48.774;9.174;2023-11-22T08:38:24;5.60;99.90
13464;DHT22;6804;48.774;9.174;2023-11-22T08:40:52;5.60;99.90
13464;DHT22;6804;48.774;9.174;2023-11-22T08:43:21;5.70;99.90
13464;DHT22;6804;48.774;9.174;2023-11-22T08:45:52;5.80;99.90
13464;DHT22;6804;48.774;9.174;2023-11-22T08:48:22;5.80;99.90
13464;DHT22;6804;48.774;9.174;2023-11-22T08:50:50;5.90;99.90
13464;DHT22;6804;48.774;9.174;2023-11-22T08:53:20;5.90;99.90
13464;DHT22;6804;48.774;9.174;2023-11-22T08:55:48;5.70;99.90
13464;DHT22;6804;48.774;9.174;2023-11-22T08:58:20;5.60;99.90
13464;DHT22;6804;48.774;9.174;2023-11-22T09:00:50;5.60;99.90
13464;DHT22;6804;48.774;9.174;2023-11-22T09:03:18;5.60;99.90
13464;DHT22;6804;48.774;9.174;2023-11-22T09:05:48;5.60;99.90
13464;DHT22;6804;48.774;9.174;2023-11-22T09:08:23;5.70;99.90
13464;DHT22;6804;48.774;9.174;2023-11-22T09:10:54;5.70;99.90
13464;DHT22;6804;48.774;9.174;2023-11-22T09:13:22;5.80;99.90
13464;DHT22;6804;48.774;9.174;2023-11-22T09:15:53;5.80;99.90
13464;DHT22;6804;48.774;9.174;2023-11-22T09:18:21;5.60;99.90
13464;DHT22;6804;48.774;9.174;2023-11-22T09:20:53;5.60;99.90
13464;DHT22;6804;48.774;9.174;2023-11-22T09:23:25;5.70;99.90
13464;DHT22;6804;48.774;9.174;2023-11-22T09:25:53;5.80;99.90
13464;DHT22;6804;48.774;9.174;2023-11-22T09:28:22;5.90;99.90
13464;DHT22;6804;48.774;9.174;2023-11-22T09:30:53;6.00;99.90
13464;DHT22;6804;48.774;9.174;2023-11-22T09:33:27;5.90;99.90
13464;DHT22;6804;48.774;9.174;2023-11-22T09:35:57;5.90;99.90
13464;DHT22;6804;48.774;9.174;2023-11-22T09:38:27;5.90;99.90
13464;DHT22;6804;48.774;9.174;2023-11-22T09:40:56;5.90;99.90
13464;DHT22;6804;48.774;9.174;2023-11-22T09:43:25;6.00;99.90
13464;DHT22;6804;48.774;9.174;2023-11-22T09:45:55;6.00;99.90
13464;DHT22;6804;48.774;9.174;2023-11-22T09:48:25;6.00;99.90
13464;DHT22;6804;48.774;9.174;2023-11-22T09:51:00;5.90;99.90
13464;DHT22;6804;48.774;9.174;2023-11-22T09:53:52;6.00;99.90
13464;DHT22;6804;48.774;9.174;2023-11-22T09:56:23;6.00;99.90
13464;DHT22;6804;48.774;9.174;2023-11-22T09:58:54;6.00;99.90
13464;DHT22;6804;48.774;9.174;2023-11-22T10:01:41;6.00;99.90
13464;DHT22;6804;48.774;9.174;2023-11-22T10:04:15;6.10;99.90
13464;DHT22;6804;48.774;9.174;2023-11-22T10:06:45;6.00;99.90
13464;DHT22;6804;48.774;9.174;2023-11-22T10:09:17;6.00;99.90
13464;DHT22;6804;48.774;9.174;2023-11-22T10:11:45;6.00;99.90
13464;DHT22;6804;48.774;9.174;2023-11-22T10:14:24;6.00;99.90
13464;DHT22;6804;48.774;9.174;2023-11-22T10:16:59;6.10;99.90
13464;DHT22;6804;48.774;9.174;2023-11-22T10:19:29;6.10;99.90
13464;DHT22;6804;48.774;9.174;2023-11-22T10:22:07;6.10;99.90
13464;DHT22;6804;48.774;9.174;2023-11-22T10:24:36;6.10;99.90
13464;DHT22;6804;48.774;9.174;2023-11-22T10:27:05;6.10;99.90
13464;DHT22;6804;48.774;9.174;2023-11-22T10:29:36;5.90;99.90
13464;DHT22;6804;48.774;9.174;2023-11-22T10:32:06;5.80;99.90
13464;DHT22;6804;48.774;9.174;2023-11-22T10:34:36;5.80;99.90
13464;DHT22;6804;48.774;9.174;2023-11-22T10:37:06;5.80;99.90
13464;DHT22;6804;48.774;9.174;2023-11-22T10:39:37;5.90;99.90
13464;DHT22;6804;48.774;9.174;2023-11-22T10:42:08;5.90;99.90
13464;DHT22;6804;48.774;9.174;2023-11-22T10:44:41;5.90;99.90
13464;DHT22;6804;48.774;9.174;2023-11-22T10:47:10;5.90;99.90
13464;DHT22;6804;48.774;9.174;2023-11-22T10:52:48;5.90;99.90
13464;DHT22;6804;48.774;9.174;2023-11-22T10:55:27;5.90;99.90
13464;DHT22;6804;48.774;9.174;2023-11-22T10:58:01;5.70;99.90
13464;DHT22;6804;48.774;9.174;2023-11-22T11:00:32;5.70;99.90
13464;DHT22;6804;48.774;9.174;2023-11-22T11:03:08;5.80;99.90
13464;DHT22;6804;48.774;9.174;2023-11-22T11:05:46;6.00;99.90
13464;DHT22;6804;48.774;9.174;2023-11-22T11:08:20;6.10;99.90
13464;DHT22;6804;48.774;9.174;2023-11-22T11:10:58;6.20;99.90
13464;DHT22;6804;48.774;9.174;2023-11-22T11:13:30;6.20;99.90
13464;DHT22;6804;48.774;9.174;2023-11-22T11:16:00;6.20;99.90
13464;DHT22;6804;48.774;9.174;2023-11-22T11:18:37;6.30;99.90
13464;DHT22;6804;48.774;9.174;2023-11-22T11:21:09;6.30;99.90
13464;DHT22;6804;48.774;9.174;2023-11-22T11:23:45;6.30;99.90
13464;DHT22;6804;48.774;9.174;2023-11-22T11:26:18;6.40;99.90
13464;DHT22;6804;48.774;9.174;2023-11-22T11:28:49;6.40;99.90
13464;DHT22;6804;48.774;9.174;2023-11-22T11:31:21;6.40;99.90
13464;DHT22;6804;48.774;9.174;2023-11-22T11:34:00;6.30;99.90
13464;DHT22;6804;48.774;9.174;2023-11-22T11:36:31;6.30;99.90
13464;DHT22;6804;48.774;9.174;2023-11-22T11:39:05;6.30;99.90
13464;DHT22;6804;48.774;9.174;2023-11-22T11:41:36;6.20;99.90
13464;DHT22;6804;48.774;9.174;2023-11-22T11:44:08;6.20;99.90
13464;DHT22;6804;48.774;9.174;2023-11-22T11:46:39;6.20;99.90
13464;DHT22;6804;48.774;9.174;2023-11-22T11:49:10;6.30;99.90
13464;DHT22;6804;48.774;9.174;2023-11-22T11:51:40;6.30;99.90
13464;DHT22;6804;48.774;9.174;2023-11-22T11:54:13;6.10;99.90
13464;DHT22;6804;48.774;9.174;2023-11-22T11:56:44;6.10;99.90
13464;DHT22;6804;48.774;9.174;2023-11-22T11:59:18;6.10;99.90
13464;DHT22;6804;48.774;9.174;2023-11-22T12:01:53;6.20;99.90
13464;DHT22;6804;48.774;9.174;2023-11-22T12:04:27;6.20;99.90
13464;DHT22;6804;48.774;9.174;2023-11-22T12:07:01;6.20;99.90
13464;DHT22;6804;48.774;9.174;2023-11-22T12:09:31;6.10;99.90
13464;DHT22;6804;48.774;9.174;2023-11-22T12:12:03;6.00;99.90
13464;DHT22;6804;48.774;9.174;2023-11-22T12:14:32;6.00;99.90
13464;DHT22;6804;48.774;9.174;2023-11-22T12:17:08;6.00;99.90
13464;DHT22;6804;48.774;9.174;2023-11-22T12:19:37;6.00;99.90
13464;DHT22;6804;48.774;9.174;2023-11-22T12:22:13;6.00;99.90
13464;DHT22;6804;48.774;9.174;2023-11-22T12:24:48;6.10;99.90
13464;DHT22;6804;48.774;9.174;2023-11-22T12:27:20;6.10;99.90
13464;DHT22;6804;48.774;9.174;2023-11-22T12:29:50;6.10;99.90
13464;DHT22;6804;48.774;9.174;2023-11-22T12:32:24;6.00;99.90
13464;DHT22;6804;48.774;9.174;2023-11-22T12:34:54;6.00;99.90
13464;DHT22;6804;48.774;9.174;2023-11-22T12:37:24;6.10;99.90
13464;DHT22;6804;48.774;9.174;2023-11-22T12:39:55;6.10;99.90
13464;DHT22;6804;48.774;9.174;2023-11-22T12:42:26;6.10;99.90
13464;DHT22;6804;48.774;9.174;2023-11-22T12:45:00;6.10;99.90
13464;DHT22;6804;48.774;9.174;2023-11-22T12:47:33;6.00;99.90
13464;DHT22;6804;48.774;9.174;2023-11-22T12:50:03;6.00;99.90
13464;DHT22;6804;48.774;9.174;2023-11-22T12:52:31;6.10;99.90
13464;DHT22;6804;48.774;9.174;2023-11-22T12:55:04;6.00;99.90
13464;DHT22;6804;48.774;9.174;2023-11-22T12:57:33;5.90;99.90
13464;DHT22;6804;48.774;9.174;2023-11-22T13:00:02;5.80;99.90
13464;DHT22;6804;48.774;9.174;2023-11-22T13:02:32;5.70;99.90
13464;DHT22;6804;48.774;9.174;2023-11-22T13:05:00;5.70;99.90
13464;DHT22;6804;48.774;9.174;2023-11-22T13:07:28;5.60;99.90
13464;DHT22;6804;48.774;9.174;2023-11-22T13:09:58;5.70;99.90
13464;DHT22;6804;48.774;9.174;2023-11-22T13:12:30;5.70;99.90
13464;DHT22;6804;48.774;9.174;2023-11-22T13:14:59;5.70;99.90
13464;DHT22;6804;48.774;9.174;2023-11-22T13:17:28;5.70;99.90
13464;DHT22;6804;48.774;9.174;2023-11-22T13:19:59;5.70;99.90
13464;DHT22;6804;48.774;9.174;2023-11-22T13:22:27;5.80;99.90
13464;DHT22;6804;48.774;9.174;2023-11-22T13:24:56;5.80;99.90
13464;DHT22;6804;48.774;9.174;2023-11-22T13:27:30;5.80;99.90
13464;DHT22;6804;48.774;9.174;2023-11-22T13:30:00;5.80;99.90
13464;DHT22;6804;48.774;9.174;2023-11-22T13:32:29;5.90;99.90
13464;DHT22;6804;48.774;9.174;2023-11-22T13:35:00;5.90;99.90
13464;DHT22;6804;48.774;9.174;2023-11-22T13:37:32;6.00;99.90
13464;DHT22;6804;48.774;9.174;2023-11-22T13:40:01;6.00;99.90
13464;DHT22;6804;48.774;9.174;2023-11-22T13:42:39;6.00;99.90
13464;DHT22;6804;48.774;9.174;2023-11-22T13:45:09;6.00;99.90
13464;DHT22;6804;48.774;9.174;2023-11-22T13:47:40;6.00;99.90
13464;DHT22;6804;48.774;9.174;2023-11-22T13:50:09;6.00;99.90
13464;DHT22;6804;48.774;9.174;2023-11-22T13:52:40;6.00;99.90
13464;DHT22;6804;48.774;9.174;2023-11-22T13:55:09;6.00;99.90
13464;DHT22;6804;48.774;9.174;2023-11-22T13:57:39;6.00;99.90
13464;DHT22;6804;48.774;9.174;2023-11-22T14:00:11;6.00;99.90
13464;DHT22;6804;48.774;9.174;2023-11-22T14:02:45;6.00;99.90
13464;DHT22;6804;48.774;9.174;2023-11-22T14:05:18;6.10;99.90
13464;DHT22;6804;48.774;9.174;2023-11-22T14:07:46;6.10;99.90
13464;DHT22;6804;48.774;9.174;2023-11-22T14:10:23;6.20;99.90
13464;DHT22;6804;48.774;9.174;2023-11-22T14:12:56;6.20;99.90
13464;DHT22;6804;48.774;9.174;2023-11-22T14:15:26;6.20;99.90
13464;DHT22;6804;48.774;9.174;2023-11-22T14:18:02;6.20;99.90
13464;DHT22;6804;48.774;9.174;2023-11-22T14:20:31;6.20;99.90
13464;DHT22;6804;48.774;9.174;2023-11-22T14:23:01;6.20;99.90
13464;DHT22;6804;48.774;9.174;2023-11-22T14:25:30;6.30;99.90
13464;DHT22;6804;48.774;9.174;2023-11-22T14:28:21;6.20;99.90
13464;DHT22;6804;48.774;9.174;2023-11-22T14:30:52;6.20;99.90
13464;DHT22;6804;48.774;9.174;2023-11-22T14:33:21;6.10;99.90
13464;DHT22;6804;48.774;9.174;2023-11-22T14:35:52;6.10;99.90
13464;DHT22;6804;48.774;9.174;2023-11-22T14:38:21;6.20;99.90
13464;DHT22;6804;48.774;9.174;2023-11-22T14:40:53;6.20;99.90
13464;DHT22;6804;48.774;9.174;2023-11-22T14:43:24;6.10;99.90
13464;DHT22;6804;48.774;9.174;2023-11-22T14:45:54;6.10;99.90
13464;DHT22;6804;48.774;9.174;2023-11-22T14:48:24;6.10;99.90
13464;DHT22;6804;48.774;9.174;2023-11-22T14:50:52;6.10;99.90
13464;DHT22;6804;48.774;9.174;2023-11-22T14:53:23;6.00;99.90
13464;DHT22;6804;48.774;9.174;2023-11-22T14:55:53;6.10;99.90
13464;DHT22;6804;48.774;9.174;2023-11-22T14:58:27;6.10;99.90
13464;DHT22;6804;48.774;9.174;2023-11-22T15:00:55;6.10;99.90
13464;DHT22;6804;48.774;9.174;2023-11-22T15:03:24;6.10;99.90
13464;DHT22;6804;48.774;9.174;2023-11-22T15:05:54;6.10;99.90
13464;DHT22;6804;48.774;9.174;2023-11-22T15:08:24;6.10;99.90
13464;DHT22;6804;48.774;9.174;2023-11-22T15:10:54;6.20;99.90
13464;DHT22;6804;48.774;9.174;2023-11-22T15:13:22;6.10;99.90
13464;DHT22;6804;48.774;9.174;2023-11-22T15:15:52;6.10;99.90
13464;DHT22;6804;48.774;9.174;2023-11-22T15:18:42;6.10;99.90
13464;DHT22;6804;48.774;9.174;2023-11-22T15:21:13;6.10;99.90
13464;DHT22;6804;48.774;9.174;2023-11-22T15:23:43;6.20;99.90
13464;DHT22;6804;48.774;9.174;2023-11-22T15:26:13;6.20;99.90
13464;DHT22;6804;48.774;9.174;2023-11-22T15:28:43;6.30;99.90
13464;DHT22;6804;48.774;9.174;2023-11-22T15:31:17;6.30;99.90
13464;DHT22;6804;48.774;9.174;2023-11-22T15:33:46;6.30;99.90
13464;DHT22;6804;48.774;9.174;2023-11-22T15:36:14;6.30;99.90
13464;DHT22;6804;48.774;9.174;2023-11-22T15:38:47;6.30;99.90
13464;DHT22;6804;48.774;9.174;2023-11-22T15:41:16;6.30;99.90
13464;DHT22;6804;48.774;9.174;2023-11-22T15:43:44;6.20;99.90
13464;DHT22;6804;48.774;9.174;2023-11-22T15:46:17;6.20;99.90
13464;DHT22;6804;48.774;9.174;2023-11-22T15:48:48;6.10;99.90
13464;DHT22;6804;48.774;9.174;2023-11-22T15:51:16;6.00;99.90
13464;DHT22;6804;48.774;9.174;2023-11-22T15:53:44;6.00;99.90
13464;DHT22;6804;48.774;9.174;2023-11-22T15:56:13;6.00;99.90
13464;DHT22;6804;48.774;9.174;2023-11-22T15:58:47;6.00;99.90
13464;DHT22;6804;48.774;9.174;2023-11-22T16:01:17;6.00;99.90
13464;DHT22;6804;48.774;9.174;2023-11-22T16:03:46;5.90;99.90
13464;DHT22;6804;48.774;9.174;2023-11-22T16:06:15;6.00;99.90
13464;DHT22;6804;48.774;9.174;2023-11-22T16:08:45;5.90;99.90
13464;DHT22;6804;48.774;9.174;2023-11-22T16:11:14;6.00;99.90
13464;DHT22;6804;48.774;9.174;2023-11-22T16:13:42;6.00;99.90
13464;DHT22;6804;48.774;9.174;2023-11-22T16:16:16;5.90;99.90
13464;DHT22;6804;48.774;9.174;2023-11-22T16:18:49;5.90;99.90
13464;DHT22;6804;48.774;9.174;2023-11-22T16:21:17;5.90;99.90
13464;DHT22;6804;48.774;9.174;2023-11-22T16:23:46;5.90;99.90
13464;DHT22;6804;48.774;9.174;2023-11-22T16:26:17;5.80;99.90